sensor_id;sensor_type;location;lat;lon;timestamp;pressure;altitude;pressure_sealevel;temperature;humidity
68169;BME280;54981;50.206;15.978;2024-01-06T00:11:57;97752.22;;;3.34;100.00
68169;BME280;54981;50.206;15.978;2024-01-06T00:26:58;97741.25;;;3.25;100.00
68169;BME280;54981;50.206;15.978;2024-01-06T00:41:59;97728.09;;;3.25;100.00
68169;BME280;54981;50.206;15.978;2024-01-06T00:56:59;97727.78;;;3.32;100.00
68169;BME280;54981;50.206;15.978;2024-01-06T01:11:59;97738.91;;;3.18;100.00
68169;BME280;54981;50.206;15.978;2024-01-06T01:27:00;97756.53;;;3.16;100.00
68169;BME280;54981;50.206;15.978;2024-01-06T01:42:00;97748.88;;;3.31;100.00
68169;BME280;54981;50.206;15.978;2024-01-06T01:57:02;97750.72;;;3.29;100.00
68169;BME280;54981;50.206;15.978;2024-01-06T02:12:05;97752.31;;;3.12;100.00
68169;BME280;54981;50.206;15.978;2024-01-06T02:27:06;97749.28;;;3.22;100.00
68169;BME280;54981;50.206;15.978;2024-01-06T02:42:06;97750.09;;;3.03;100.00
68169;BME280;54981;50.206;15.978;2024-01-06T02:57:06;97747.19;;;3.30;100.00
68169;BME280;54981;50.206;15.978;2024-01-06T03:12:07;97741.91;;;3.49;100.00
68169;BME280;54981;50.206;15.978;2024-01-06T03:27:08;97727.69;;;3.53;100.00
68169;BME280;54981;50.206;15.978;2024-01-06T03:42:09;97726.56;;;3.58;100.00
68169;BME280;54981;50.206;15.978;2024-01-06T03:57:09;97738.16;;;3.35;100.00
68169;BME280;54981;50.206;15.978;2024-01-06T04:12:09;97731.69;;;3.61;100.00
68169;BME280;54981;50.206;15.978;2024-01-06T04:27:10;97740.59;;;3.59;100.00
68169;BME280;54981;50.206;15.978;2024-01-06T04:42:10;97735.97;;;3.64;100.00
68169;BME280;54981;50.206;15.978;2024-01-06T04:57:11;97738.22;;;3.72;100.00
68169;BME280;54981;50.206;15.978;2024-01-06T05:12:11;97737.09;;;3.58;100.00
68169;BME280;54981;50.206;15.978;2024-01-06T05:27:11;97734.47;;;3.58;100.00
68169;BME280;54981;50.206;15.978;2024-01-06T05:42:12;97751.00;;;3.41;100.00
68169;BME280;54981;50.206;15.978;2024-01-06T05:57:13;97755.09;;;3.09;100.00
68169;BME280;54981;50.206;15.978;2024-01-06T06:12:13;97782.09;;;2.92;100.00
68169;BME280;54981;50.206;15.978;2024-01-06T06:27:14;97800.97;;;3.02;100.00
68169;BME280;54981;50.206;15.978;2024-01-06T06:42:14;97792.22;;;3.22;100.00
68169;BME280;54981;50.206;15.978;2024-01-06T06:57:15;97800.34;;;3.36;100.00
68169;BME280;54981;50.206;15.978;2024-01-06T07:12:15;97813.69;;;3.52;100.00
68169;BME280;54981;50.206;15.978;2024-01-06T07:27:16;97830.91;;;3.39;100.00
68169;BME280;54981;50.206;15.978;2024-01-06T07:42:16;97841.34;;;3.42;100.00
68169;BME280;54981;50.206;15.978;2024-01-06T07:57:16;97859.78;;;4.00;100.00
68169;BME280;54981;50.206;15.978;2024-01-06T08:12:17;97881.06;;;4.53;100.00
68169;BME280;54981;50.206;15.978;2024-01-06T08:27:17;97887.47;;;4.83;100.00
68169;BME280;54981;50.206;15.978;2024-01-06T08:42:17;97904.66;;;5.62;100.00
68169;BME280;54981;50.206;15.978;2024-01-06T08:57:18;97907.47;;;6.09;100.00
68169;BME280;54981;50.206;15.978;2024-01-06T09:12:19;97913.25;;;6.00;100.00
68169;BME280;54981;50.206;15.978;2024-01-06T09:27:19;97930.84;;;5.66;100.00
68169;BME280;54981;50.206;15.978;2024-01-06T09:42:20;97916.19;;;5.94;100.00
68169;BME280;54981;50.206;15.978;2024-01-06T09:57:21;97917.16;;;6.42;100.00
68169;BME280;54981;50.206;15.978;2024-01-06T10:12:25;97913.00;;;6.86;100.00
68169;BME280;54981;50.206;15.978;2024-01-06T10:27:25;97911.25;;;7.46;100.00
68169;BME280;54981;50.206;15.978;2024-01-06T10:42:26;97908.53;;;7.48;100.00
68169;BME280;54981;50.206;15.978;2024-01-06T10:57:28;97894.09;;;7.82;100.00
68169;BME280;54981;50.206;15.978;2024-01-06T11:12:32;97895.16;;;8.08;100.00
68169;BME280;54981;50.206;15.978;2024-01-06T11:27:33;97897.31;;;8.02;100.00
68169;BME280;54981;50.206;15.978;2024-01-06T11:42:34;97888.88;;;7.95;100.00
68169;BME280;54981;50.206;15.978;2024-01-06T11:57:36;97878.78;;;7.87;100.00
68169;BME280;54981;50.206;15.978;2024-01-06T12:12:37;97868.66;;;8.08;100.00
68169;BME280;54981;50.206;15.978;2024-01-06T12:27:44;97877.06;;;7.12;100.00
68169;BME280;54981;50.206;15.978;2024-01-06T12:42:45;97874.38;;;6.97;100.00
68169;BME280;54981;50.206;15.978;2024-01-06T12:57:45;97877.38;;;7.07;100.00
68169;BME280;54981;50.206;15.978;2024-01-06T13:12:46;97883.19;;;6.82;100.00
68169;BME280;54981;50.206;15.978;2024-01-06T13:27:46;97889.72;;;6.76;100.00
68169;BME280;54981;50.206;15.978;2024-01-06T13:42:49;97891.69;;;6.57;100.00
68169;BME280;54981;50.206;15.978;2024-01-06T13:57:53;97903.75;;;6.29;100.00
68169;BME280;54981;50.206;15.978;2024-01-06T14:12:53;97925.22;;;6.07;100.00
68169;BME280;54981;50.206;15.978;2024-01-06T14:27:54;97934.09;;;5.71;100.00
68169;BME280;54981;50.206;15.978;2024-01-06T14:42:54;97941.06;;;5.03;100.00
68169;BME280;54981;50.206;15.978;2024-01-06T14:57:55;97969.59;;;4.57;100.00
68169;BME280;54981;50.206;15.978;2024-01-06T15:12:55;97980.22;;;4.16;100.00
68169;BME280;54981;50.206;15.978;2024-01-06T15:27:55;97996.13;;;3.73;100.00
68169;BME280;54981;50.206;15.978;2024-01-06T15:42:56;98021.19;;;3.61;100.00
68169;BME280;54981;50.206;15.978;2024-01-06T15:57:57;98024.22;;;3.30;100.00
68169;BME280;54981;50.206;15.978;2024-01-06T16:12:58;98039.88;;;3.11;100.00
68169;BME280;54981;50.206;15.978;2024-01-06T16:28:00;98045.84;;;2.93;100.00
68169;BME280;54981;50.206;15.978;2024-01-06T16:43:00;98051.84;;;2.74;100.00
68169;BME280;54981;50.206;15.978;2024-01-06T16:58:00;98048.19;;;2.55;100.00
68169;BME280;54981;50.206;15.978;2024-01-06T17:13:01;98060.31;;;2.34;100.00
68169;BME280;54981;50.206;15.978;2024-01-06T17:28:02;98066.09;;;2.19;100.00
68169;BME280;54981;50.206;15.978;2024-01-06T17:43:02;98066.50;;;2.08;100.00
68169;BME280;54981;50.206;15.978;2024-01-06T17:58:03;98058.19;;;1.95;100.00
68169;BME280;54981;50.206;15.978;2024-01-06T18:13:07;98084.94;;;1.80;100.00
68169;BME280;54981;50.206;15.978;2024-01-06T18:28:11;98103.56;;;1.72;100.00
68169;BME280;54981;50.206;15.978;2024-01-06T18:43:11;98095.28;;;1.58;100.00
68169;BME280;54981;50.206;15.978;2024-01-06T18:58:15;98107.88;;;1.46;100.00
68169;BME280;54981;50.206;15.978;2024-01-06T19:13:21;98112.00;;;1.27;100.00
68169;BME280;54981;50.206;15.978;2024-01-06T19:28:24;98127.59;;;1.03;100.00
68169;BME280;54981;50.206;15.978;2024-01-06T19:43:26;98129.94;;;0.83;100.00
68169;BME280;54981;50.206;15.978;2024-01-06T19:58:27;98125.94;;;0.70;100.00
68169;BME280;54981;50.206;15.978;2024-01-06T20:13:29;98144.41;;;0.65;100.00
68169;BME280;54981;50.206;15.978;2024-01-06T20:28:33;98146.41;;;0.55;100.00
68169;BME280;54981;50.206;15.978;2024-01-06T20:43:34;98146.47;;;0.54;100.00
68169;BME280;54981;50.206;15.978;2024-01-06T20:58:34;98166.81;;;0.44;100.00
68169;BME280;54981;50.206;15.978;2024-01-06T21:13:35;98172.38;;;0.32;100.00
68169;BME280;54981;50.206;15.978;2024-01-06T21:28:35;98171.88;;;0.17;100.00
68169;BME280;54981;50.206;15.978;2024-01-06T21:43:36;98162.50;;;0.07;100.00
68169;BME280;54981;50.206;15.978;2024-01-06T21:58:36;98181.19;;;-0.07;100.00
68169;BME280;54981;50.206;15.978;2024-01-06T22:13:36;98191.72;;;-0.10;100.00
68169;BME280;54981;50.206;15.978;2024-01-06T22:28:37;98187.41;;;-0.12;100.00
68169;BME280;54981;50.206;15.978;2024-01-06T22:43:37;98197.09;;;-0.14;100.00
68169;BME280;54981;50.206;15.978;2024-01-06T22:58:38;98206.84;;;-0.23;100.00
68169;BME280;54981;50.206;15.978;2024-01-06T23:13:38;98207.56;;;-0.14;100.00
68169;BME280;54981;50.206;15.978;2024-01-06T23:28:39;98210.38;;;-0.24;100.00
68169;BME280;54981;50.206;15.978;2024-01-06T23:43:39;98240.19;;;-0.31;100.00
68169;BME280;54981;50.206;15.978;2024-01-06T23:58:39;98241.16;;;-0.36;100.00
